Time,TemperatureF,DewpointF,PressureIn,WindDirection,WindDirectionDegrees,WindSpeedMPH,WindSpeedGustMPH,Humidity,HourlyPrecipIn,Conditions,Clouds,dailyrainin,SoftwareType,DateUTC
2013-02-07 00:02:00,29.0,7.0,30.35,NNW,340,0.0,157.0,39,0.00,,,0.01,,2013-02-07 05:02:00,
2013-02-07 00:12:00,29.0,7.0,30.35,NNW,340,0.0,157.0,39,0.00,,,0.01,,2013-02-07 05:12:00,
2013-02-07 00:21:00,28.0,6.0,30.35,NNW,339,0.0,0.0,39,0.00,,,0.01,,2013-02-07 05:21:00,
2013-02-07 00:32:00,27.0,4.0,30.35,NNW,339,0.0,0.0,36,0.00,,,0.01,,2013-02-07 05:32:00,
2013-02-07 00:42:00,27.0,4.0,30.35,NNW,339,0.0,0.0,36,0.00,,,0.01,,2013-02-07 05:42:00,
2013-02-07 00:52:00,27.0,4.0,30.34,NNW,339,0.0,0.0,36,0.00,,,0.01,,2013-02-07 05:52:00,
2013-02-07 01:02:00,27.0,6.0,30.35,NNW,340,0.0,0.0,40,0.00,,,0.01,,2013-02-07 06:02:00,
2013-02-07 01:11:00,27.0,6.0,30.35,NNW,340,0.0,0.0,40,0.00,,,0.01,,2013-02-07 06:11:00,
2013-02-07 01:22:00,27.0,5.0,30.36,NNW,339,0.0,0.0,39,0.00,,,0.01,,2013-02-07 06:22:00,
2013-02-07 01:32:00,26.0,6.0,30.36,NNW,340,0.0,0.0,42,0.00,,,0.01,,2013-02-07 06:32:00,
2013-02-07 01:43:00,26.0,6.0,30.36,NNW,340,0.0,0.0,42,0.00,,,0.01,,2013-02-07 06:43:00,
2013-02-07 01:52:00,26.0,7.0,30.37,NNW,339,0.0,0.0,43,0.00,,,0.01,,2013-02-07 06:52:00,
2013-02-07 02:01:00,26.0,8.0,30.37,NNW,339,0.0,0.0,45,0.00,,,0.01,,2013-02-07 07:01:00,
2013-02-07 02:11:00,25.0,9.0,30.38,NNW,340,0.0,0.0,49,0.00,,,0.01,,2013-02-07 07:11:00,
2013-02-07 02:22:00,25.0,9.0,30.38,NNW,340,0.0,0.0,49,0.00,,,0.01,,2013-02-07 07:22:00,
2013-02-07 02:32:00,25.0,9.0,30.38,NNW,339,0.0,0.0,50,0.00,,,0.01,,2013-02-07 07:32:00,
2013-02-07 02:42:00,25.0,9.0,30.38,NNW,339,0.0,0.0,50,0.00,,,0.01,,2013-02-07 07:42:00,
2013-02-07 02:52:00,24.0,9.0,30.38,NNW,337,0.0,10.0,51,0.00,,,0.01,,2013-02-07 07:52:00,
2013-02-07 03:01:00,24.0,9.0,30.38,NNW,340,0.0,10.0,53,0.00,,,0.01,,2013-02-07 08:01:00,
2013-02-07 03:11:00,24.0,9.0,30.38,NNW,340,0.0,10.0,53,0.00,,,0.01,,2013-02-07 08:11:00,
2013-02-07 03:22:00,23.0,8.0,30.38,NNW,339,0.0,10.0,53,0.00,,,0.01,,2013-02-07 08:22:00,
2013-02-07 03:32:00,23.0,8.0,30.39,NNW,339,0.0,10.0,53,0.00,,,0.01,,2013-02-07 08:32:00,
2013-02-07 03:42:00,23.0,8.0,30.39,NNW,339,0.0,10.0,53,0.00,,,0.01,,2013-02-07 08:42:00,
2013-02-07 03:52:00,23.0,10.0,30.41,NNW,339,0.0,10.0,58,0.00,,,0.01,,2013-02-07 08:52:00,
2013-02-07 04:02:00,22.0,9.0,30.41,NNW,339,0.0,66.0,57,0.00,,,0.01,,2013-02-07 09:02:00,
2013-02-07 04:11:00,22.0,3.0,30.41,NNW,339,0.0,66.0,44,0.00,,,0.01,,2013-02-07 09:11:00,
2013-02-07 04:21:00,22.0,3.0,30.41,NNW,339,0.0,66.0,44,0.00,,,0.01,,2013-02-07 09:21:00,
2013-02-07 04:32:00,23.0,6.0,30.41,NNW,340,0.0,66.0,48,0.00,,,0.01,,2013-02-07 09:32:00,
2013-02-07 04:42:00,23.0,6.0,30.41,NNW,340,0.0,66.0,48,0.00,,,0.01,,2013-02-07 09:42:00,
2013-02-07 04:52:00,23.0,7.0,30.42,NNW,340,0.0,66.0,49,0.00,,,0.01,,2013-02-07 09:52:00,
2013-02-07 05:02:00,23.0,7.0,30.42,NNW,340,0.0,66.0,49,0.00,,,0.01,,2013-02-07 10:02:00,
2013-02-07 05:11:00,23.0,7.0,30.42,NNW,340,0.0,66.0,49,0.00,,,0.01,,2013-02-07 10:11:00,
2013-02-07 05:22:00,23.0,8.0,30.43,NNW,340,0.0,66.0,52,0.00,,,0.01,,2013-02-07 10:22:00,
2013-02-07 05:32:00,22.0,8.0,30.44,NNW,337,0.0,66.0,53,0.00,,,0.01,,2013-02-07 10:32:00,
2013-02-07 05:42:00,22.0,8.0,30.44,NNW,337,0.0,66.0,53,0.00,,,0.01,,2013-02-07 10:42:00,
2013-02-07 05:52:00,22.0,9.0,30.44,NNW,339,0.0,66.0,56,0.00,,,0.01,,2013-02-07 10:52:00,
2013-02-07 06:01:00,22.0,9.0,30.44,NNW,339,0.0,66.0,56,0.00,,,0.01,,2013-02-07 11:01:00,
2013-02-07 06:11:00,22.0,9.0,30.44,NNW,339,0.0,66.0,56,0.00,,,0.01,,2013-02-07 11:11:00,
2013-02-07 06:23:00,22.0,6.0,30.44,NNW,342,0.0,157.0,49,0.00,,,0.01,,2013-02-07 11:23:00,
2013-02-07 06:32:00,22.0,8.0,30.44,NNW,342,0.0,157.0,53,0.00,,,0.01,,2013-02-07 11:32:00,
2013-02-07 06:44:00,22.0,8.0,30.44,NNW,342,0.0,157.0,53,0.00,,,0.01,,2013-02-07 11:44:00,
2013-02-07 06:53:00,22.0,8.0,30.44,NNW,342,0.0,157.0,55,0.00,,,0.01,,2013-02-07 11:53:00,
2013-02-07 07:02:00,22.0,7.0,30.44,North,353,0.0,157.0,51,0.00,,,0.01,,2013-02-07 12:02:00,
2013-02-07 07:11:00,22.0,7.0,30.44,North,353,0.0,157.0,51,0.00,,,0.01,,2013-02-07 12:11:00,
2013-02-07 07:22:00,22.0,8.0,30.46,North,354,15.0,157.0,55,0.00,,,0.01,,2013-02-07 12:22:00,
2013-02-07 07:33:00,22.0,8.0,30.47,North,353,0.0,157.0,54,0.00,,,0.01,,2013-02-07 12:33:00,
2013-02-07 07:42:00,22.0,8.0,30.47,North,353,0.0,157.0,54,0.00,,,0.01,,2013-02-07 12:42:00,
2013-02-07 07:53:00,22.0,6.0,30.48,North,352,0.0,157.0,49,0.00,,,0.01,,2013-02-07 12:53:00,
2013-02-07 08:03:00,23.0,7.0,30.48,North,353,0.0,157.0,49,0.00,,,0.01,,2013-02-07 13:03:00,
2013-02-07 08:12:00,23.0,7.0,30.48,North,353,0.0,157.0,49,0.00,,,0.01,,2013-02-07 13:12:00,
2013-02-07 08:22:00,23.0,7.0,30.50,North,354,0.0,157.0,49,0.00,,,0.01,,2013-02-07 13:22:00,
2013-02-07 08:32:00,23.0,5.0,30.50,North,354,0.0,157.0,46,0.00,,,0.01,,2013-02-07 13:32:00,
2013-02-07 08:42:00,23.0,5.0,30.50,North,354,0.0,157.0,46,0.00,,,0.01,,2013-02-07 13:42:00,
2013-02-07 08:52:00,24.0,4.0,30.50,North,354,0.0,157.0,42,0.00,,,0.01,,2013-02-07 13:52:00,
2013-02-07 09:01:00,24.0,3.0,30.50,North,352,0.0,157.0,40,0.00,,,0.01,,2013-02-07 14:01:00,
2013-02-07 09:11:00,24.0,3.0,30.50,North,352,0.0,157.0,40,0.00,,,0.01,,2013-02-07 14:11:00,
2013-02-07 09:22:00,25.0,4.0,30.50,North,357,0.0,157.0,40,0.00,,,0.01,,2013-02-07 14:22:00,
2013-02-07 09:32:00,25.0,3.0,30.50,NNW,347,0.0,157.0,38,0.00,,,0.01,,2013-02-07 14:32:00,
2013-02-07 09:42:00,25.0,3.0,30.50,NNW,347,0.0,157.0,38,0.00,,,0.01,,2013-02-07 14:42:00,
2013-02-07 09:52:00,26.0,2.0,30.50,NNW,342,0.0,157.0,35,0.00,,,0.01,,2013-02-07 14:52:00,
2013-02-07 10:02:00,26.0,2.0,30.50,North,1,0.0,157.0,35,0.00,,,0.01,,2013-02-07 15:02:00,
2013-02-07 10:11:00,26.0,2.0,30.50,North,1,0.0,157.0,35,0.00,,,0.01,,2013-02-07 15:11:00,
2013-02-07 10:22:00,26.0,3.0,30.50,NNE,15,1.0,157.0,36,0.00,,,0.01,,2013-02-07 15:22:00,
2013-02-07 10:32:00,27.0,3.0,30.51,NNE,26,0.0,157.0,35,0.00,,,0.01,,2013-02-07 15:32:00,
2013-02-07 10:42:00,27.0,3.0,30.51,NNE,26,0.0,157.0,35,0.00,,,0.01,,2013-02-07 15:42:00,
2013-02-07 10:52:00,27.0,4.0,30.52,NNE,25,1.0,157.0,36,0.00,,,0.01,,2013-02-07 15:52:00,
2013-02-07 11:01:00,28.0,5.0,30.52,NNE,21,1.0,157.0,36,0.00,,,0.01,,2013-02-07 16:01:00,
2013-02-07 11:11:00,28.0,5.0,30.52,NNE,21,1.0,157.0,36,0.00,,,0.01,,2013-02-07 16:11:00,
2013-02-07 11:22:00,28.0,5.0,30.51,NNE,21,0.0,157.0,36,0.00,,,0.00,,2013-02-07 16:22:00,
2013-02-07 11:32:00,29.0,4.0,30.51,NNE,21,0.0,157.0,34,0.00,,,0.00,,2013-02-07 16:32:00,
2013-02-07 11:42:00,29.0,4.0,30.51,NNE,21,0.0,157.0,34,0.00,,,0.00,,2013-02-07 16:42:00,
2013-02-07 11:52:00,29.0,5.0,30.49,NE,36,1.0,157.0,35,0.00,,,0.00,,2013-02-07 16:52:00,
2013-02-07 12:01:00,29.0,4.0,30.49,NNE,24,5.0,157.0,34,0.00,,,0.00,,2013-02-07 17:01:00,
2013-02-07 12:11:00,30.0,4.0,30.49,NNE,24,0.0,157.0,33,0.00,,,0.00,,2013-02-07 17:11:00,
2013-02-07 12:21:00,30.0,4.0,30.49,NNE,24,0.0,157.0,33,0.00,,,0.00,,2013-02-07 17:21:00,
2013-02-07 12:32:00,30.0,5.0,30.48,NNE,27,1.0,157.0,34,0.00,,,0.00,,2013-02-07 17:32:00,
2013-02-07 12:43:00,30.0,5.0,30.48,NNE,27,1.0,157.0,34,0.00,,,0.00,,2013-02-07 17:43:00,
2013-02-07 12:52:00,30.0,4.0,30.47,NE,42,0.0,157.0,32,0.00,,,0.00,,2013-02-07 17:52:00,
2013-02-07 13:02:00,30.0,6.0,30.47,ENE,65,7.0,157.0,36,0.00,,,0.00,,2013-02-07 18:02:00,
2013-02-07 13:11:00,30.0,6.0,30.47,ENE,65,7.0,157.0,36,0.00,,,0.00,,2013-02-07 18:11:00,
2013-02-07 13:23:00,31.0,8.0,30.47,SE,144,1.0,157.0,38,0.00,,,0.00,,2013-02-07 18:23:00,
2013-02-07 13:32:00,31.0,9.0,30.47,SE,143,1.0,157.0,39,0.00,,,0.00,,2013-02-07 18:32:00,
2013-02-07 13:42:00,31.0,9.0,30.47,SE,143,1.0,157.0,39,0.00,,,0.00,,2013-02-07 18:42:00,
2013-02-07 13:52:00,31.0,8.0,30.46,SE,143,1.0,157.0,37,0.00,,,0.00,,2013-02-07 18:52:00,
2013-02-07 14:01:00,31.0,8.0,30.46,SE,134,1.0,157.0,38,0.00,,,0.00,,2013-02-07 19:01:00,
2013-02-07 14:11:00,31.0,8.0,30.46,SE,134,0.0,157.0,38,0.00,,,0.00,,2013-02-07 19:11:00,
2013-02-07 14:22:00,31.0,8.0,30.46,SE,134,0.0,157.0,38,0.00,,,0.00,,2013-02-07 19:22:00,
2013-02-07 14:32:00,31.0,7.0,30.45,SE,133,2.0,157.0,36,0.00,,,0.00,,2013-02-07 19:32:00,
2013-02-07 14:42:00,31.0,7.0,30.45,SE,133,2.0,157.0,36,0.00,,,0.00,,2013-02-07 19:42:00,
2013-02-07 14:52:00,30.0,6.0,30.45,ESE,119,3.0,157.0,36,0.00,,,0.00,,2013-02-07 19:52:00,
2013-02-07 15:01:00,30.0,6.0,30.45,ESE,116,0.0,157.0,35,0.00,,,0.00,,2013-02-07 20:01:00,
2013-02-07 15:11:00,30.0,6.0,30.45,ESE,116,0.0,157.0,35,0.00,,,0.00,,2013-02-07 20:11:00,
2013-02-07 15:22:00,31.0,7.0,30.45,ESE,116,0.0,157.0,36,0.00,,,0.00,,2013-02-07 20:22:00,
2013-02-07 15:32:00,31.0,9.0,30.45,ESE,115,1.0,157.0,39,0.00,,,0.00,,2013-02-07 20:32:00,
2013-02-07 15:42:00,31.0,9.0,30.45,ESE,115,1.0,157.0,39,0.00,,,0.00,,2013-02-07 20:42:00,
2013-02-07 15:52:00,30.0,9.0,30.44,East,88,0.0,157.0,41,0.00,,,0.00,,2013-02-07 20:52:00,
2013-02-07 16:02:00,30.0,9.0,30.44,East,92,0.0,157.0,40,0.00,,,0.00,,2013-02-07 21:02:00,
2013-02-07 16:11:00,30.0,9.0,30.44,East,92,0.0,157.0,40,0.00,,,0.00,,2013-02-07 21:11:00,
2013-02-07 16:21:00,30.0,9.0,30.43,ESE,103,0.0,157.0,41,0.00,,,0.00,,2013-02-07 21:21:00,
2013-02-07 16:32:00,30.0,10.0,30.43,East,95,1.0,157.0,43,0.00,,,0.00,,2013-02-07 21:32:00,
2013-02-07 16:42:00,30.0,10.0,30.43,East,95,1.0,157.0,43,0.00,,,0.00,,2013-02-07 21:42:00,
2013-02-07 16:52:00,29.0,9.0,30.43,East,100,1.0,157.0,42,0.00,,,0.00,,2013-02-07 21:52:00,
2013-02-07 17:02:00,29.0,10.0,30.42,East,96,0.0,157.0,45,0.00,,,0.00,,2013-02-07 22:02:00,
2013-02-07 17:11:00,30.0,11.0,30.42,East,93,2.0,157.0,45,0.00,,,0.00,,2013-02-07 22:11:00,
2013-02-07 17:21:00,30.0,11.0,30.42,East,93,2.0,157.0,45,0.00,,,0.00,,2013-02-07 22:21:00,
2013-02-07 17:32:00,30.0,10.0,30.42,East,96,1.0,157.0,43,0.00,,,0.00,,2013-02-07 22:32:00,
2013-02-07 17:42:00,30.0,10.0,30.42,East,96,1.0,157.0,43,0.00,,,0.00,,2013-02-07 22:42:00,
2013-02-07 17:52:00,29.0,9.0,30.42,East,96,1.0,157.0,43,0.00,,,0.00,,2013-02-07 22:52:00,
2013-02-07 18:01:00,29.0,12.0,30.43,East,96,2.0,157.0,48,0.00,,,0.00,,2013-02-07 23:01:00,
2013-02-07 18:11:00,29.0,12.0,30.43,East,96,2.0,157.0,48,0.00,,,0.00,,2013-02-07 23:11:00,
2013-02-07 18:22:00,29.0,14.0,30.42,East,92,0.0,157.0,52,0.00,,,0.00,,2013-02-07 23:22:00,
2013-02-07 18:32:00,29.0,14.0,30.42,East,97,3.0,157.0,53,0.00,,,0.00,,2013-02-07 23:32:00,
2013-02-07 18:42:00,29.0,14.0,30.42,East,97,3.0,157.0,53,0.00,,,0.00,,2013-02-07 23:42:00,
2013-02-07 18:52:00,29.0,15.0,30.42,East,97,0.0,157.0,55,0.00,,,0.00,,2013-02-07 23:52:00,
2013-02-07 19:02:00,29.0,14.0,30.42,East,95,3.0,157.0,54,0.00,,,0.00,,2013-02-08 00:02:00,
2013-02-07 19:11:00,29.0,14.0,30.42,East,95,3.0,157.0,54,0.00,,,0.00,,2013-02-08 00:11:00,
2013-02-07 19:22:00,30.0,15.0,30.43,East,89,3.0,157.0,52,0.00,,,0.00,,2013-02-08 00:22:00,
2013-02-07 19:32:00,30.0,15.0,30.43,East,89,5.0,157.0,53,0.00,,,0.00,,2013-02-08 00:32:00,
2013-02-07 19:42:00,30.0,15.0,30.43,East,89,5.0,157.0,53,0.00,,,0.00,,2013-02-08 00:42:00,
2013-02-07 19:52:00,30.0,15.0,30.43,East,90,1.0,157.0,52,0.00,,,0.00,,2013-02-08 00:52:00,
2013-02-07 20:01:00,30.0,15.0,30.43,East,86,0.0,157.0,52,0.00,,,0.00,,2013-02-08 01:01:00,
2013-02-07 20:11:00,30.0,15.0,30.43,East,86,0.0,157.0,52,0.00,,,0.00,,2013-02-08 01:11:00,
2013-02-07 20:21:00,30.0,16.0,30.43,East,95,3.0,157.0,55,0.00,,,0.00,,2013-02-08 01:21:00,
2013-02-07 20:32:00,30.0,16.0,30.42,East,90,9.0,157.0,56,0.00,,,0.00,,2013-02-08 01:32:00,
2013-02-07 20:41:00,30.0,16.0,30.42,East,90,9.0,157.0,56,0.00,,,0.00,,2013-02-08 01:41:00,
2013-02-07 20:52:00,30.0,17.0,30.42,ESE,106,3.0,157.0,59,0.00,,,0.00,,2013-02-08 01:52:00,
2013-02-07 21:01:00,30.0,18.0,30.42,East,88,7.0,157.0,61,0.00,,,0.00,,2013-02-08 02:01:00,
2013-02-07 21:11:00,30.0,18.0,30.42,East,88,7.0,157.0,61,0.00,,,0.00,,2013-02-08 02:11:00,
2013-02-07 21:21:00,30.0,19.0,30.42,East,97,5.0,157.0,62,0.00,,,0.00,,2013-02-08 02:21:00,
2013-02-07 21:32:00,30.0,19.0,30.42,East,89,5.0,157.0,64,0.00,,,0.00,,2013-02-08 02:32:00,
2013-02-07 21:42:00,30.0,19.0,30.42,East,89,5.0,157.0,64,0.00,,,0.00,,2013-02-08 02:42:00,
2013-02-07 21:52:00,31.0,21.0,30.42,ENE,62,1.0,157.0,65,0.00,,,0.00,,2013-02-08 02:52:00,
2013-02-07 22:02:00,31.0,21.0,30.41,East,83,3.0,157.0,66,0.00,,,0.00,,2013-02-08 03:02:00,
2013-02-07 22:12:00,31.0,21.0,30.41,East,83,3.0,157.0,66,0.00,,,0.00,,2013-02-08 03:12:00,
2013-02-07 22:22:00,31.0,22.0,30.40,East,80,1.0,157.0,68,0.00,,,0.00,,2013-02-08 03:22:00,
2013-02-07 22:32:00,31.0,22.0,30.40,ESE,106,3.0,157.0,69,0.00,,,0.00,,2013-02-08 03:32:00,
2013-02-07 22:42:00,31.0,22.0,30.40,ESE,106,3.0,157.0,69,0.00,,,0.00,,2013-02-08 03:42:00,
2013-02-07 22:52:00,31.0,22.0,30.39,East,100,0.0,157.0,69,0.00,,,0.00,,2013-02-08 03:52:00,
2013-02-07 23:02:00,32.0,23.0,30.39,SE,126,1.0,157.0,69,0.00,,,0.00,,2013-02-08 04:02:00,
2013-02-07 23:11:00,32.0,23.0,30.39,SE,126,1.0,157.0,69,0.00,,,0.00,,2013-02-08 04:11:00,
2013-02-07 23:21:00,32.0,23.0,30.38,East,97,0.0,157.0,70,0.00,,,0.00,,2013-02-08 04:21:00,
2013-02-07 23:32:00,32.0,23.0,30.37,ENE,58,0.0,157.0,70,0.00,,,0.00,,2013-02-08 04:32:00,
2013-02-07 23:42:00,32.0,23.0,30.37,ENE,58,0.0,157.0,70,0.00,,,0.00,,2013-02-08 04:42:00,
2013-02-07 23:52:00,32.0,23.0,30.36,ENE,59,1.0,157.0,70,0.00,,,0.00,,2013-02-08 04:52:00,